Sherman, Wisconsin
Current Conditions -  °F | °C
As of 4:15 PM on Thursday 18 Dec 2014 (Local Time) from KPBH Reporting Station
Overcast Overcast  
Wind Chill: -10°   Ceiling: 1400
Heat Index: -6°   Visibility: 10mi
Dew Point: -9°   Wind: 5mph
Humidity: 83%   Direction: 210°SSW
Pressure: 30.22"   Gusts: NA
Location:  45.9599°N, 90.2362°W
Report Text: KPBH 182215Z AUTO 21004KT 10SM OVC014 M06/M08 A3022 RMK AO2 T10601085
Loading
Personal Weather Stations






























Interactive Weather Map New forecast layout! Learn more

10-Day Weather Forecast

Advertisements
Track Severe Weather on mobile